Date,TemperatureHighF,TemperatureAvgF,TemperatureLowF,DewpointHighF,DewpointAvgF,DewpointLowF,HumidityHigh,HumidityAvg,HumidityLow,PressureMaxIn,PressureMinIn,WindSpeedMaxMPH,WindSpeedAvgMPH,GustSpeedMaxMPH,PrecipitationSumIn
2013-2-1,70.3,56.7,41.7,50.6,46.3,41.2,98,72,40,30.24,30.12,8,2,0,0.00
2013-2-2,74.5,66.8,54.9,60.6,57.5,54.3,98,74,54,30.14,30.02,8,3,0,0.00
2013-2-3,72.0,64.7,46.4,49.6,40.9,32.7,98,46,24,30.18,29.95,10,4,0,0.00
2013-2-4,69.8,65.6,57.4,66.3,63.7,56.8,98,94,86,29.86,29.70,7,3,0,0.00
2013-2-5,77.7,69.1,62.1,71.0,65.8,61.5,98,90,70,29.85,29.74,4,2,0,0.02
2013-2-6,65.7,63.1,61.0,65.1,62.5,60.4,98,98,98,29.91,29.70,12,4,0,0.98
2013-2-7,68.0,63.5,58.1,66.9,62.8,57.5,98,98,94,29.82,29.75,4,2,0,0.00
2013-2-8,64.4,57.4,51.3,58.4,55.4,50.8,98,94,80,30.01,29.96,10,5,0,0.01
2013-2-9,66.6,58.9,46.4,66.0,58.3,45.9,98,98,98,30.02,29.74,13,5,0,0.00
2013-2-10,75.6,67.2,61.7,75.0,66.6,61.1,98,98,96,29.80,29.64,13,5,0,0.30
2013-2-11,62.4,56.0,51.4,61.8,54.6,50.9,98,95,80,29.94,29.80,12,6,0,0.70
2013-2-12,64.6,56.4,53.6,64.0,55.8,53.0,98,98,98,29.84,29.63,12,5,0,0.45
2013-2-13,59.5,54.0,43.7,47.9,45.6,43.2,98,75,59,29.94,29.86,11,4,0,0.00
2013-2-14,57.6,46.8,33.1,48.4,43.4,32.6,98,89,66,30.02,29.94,4,1,0,0.00
2013-2-15,69.1,51.4,35.6,51.2,43.4,35.1,98,77,45,30.15,29.96,16,5,0,0.00
2013-2-16,60.4,46.6,32.7,37.5,32.8,27.2,98,62,35,30.28,30.10,12,4,0,0.00
2013-2-17,70.5,52.4,33.1,55.3,44.9,32.6,98,79,47,30.13,29.94,13,4,0,0.00
2013-2-18,71.1,65.1,55.0,67.8,62.2,54.4,98,91,82,29.93,29.69,24,7,0,0.71
2013-2-19,68.0,56.5,46.6,54.6,43.7,36.2,98,66,33,30.12,29.90,11,5,0,0.00
2013-2-20,59.9,54.0,47.3,55.1,43.7,30.5,91,69,39,30.03,29.70,14,6,0,0.00
2013-2-21,75.2,65.2,56.5,74.6,64.4,55.7,98,98,90,29.69,29.50,19,6,0,0.13
2013-2-22,66.0,58.3,54.1,60.3,55.4,53.3,98,91,69,29.83,29.69,11,5,0,0.00
2013-2-23,70.3,56.9,48.0,56.2,52.0,47.5,98,85,59,29.84,29.72,13,4,0,0.00
2013-2-24,69.8,58.1,43.3,58.7,52.8,42.8,98,84,58,29.81,29.52,8,4,0,0.00
2013-2-25,77.2,63.8,47.7,72.3,52.6,27.6,98,73,18,29.54,29.28,20,7,0,0.54
2013-2-26,63.9,52.7,43.2,46.3,41.2,35.7,98,67,46,29.79,29.54,19,7,0,0.00
2013-2-27,75.2,54.8,39.9,55.7,43.5,34.5,98,70,31,29.99,29.76,19,4,0,0.00
2013-2-28,57.7,45.6,36.3,40.2,35.1,31.3,98,69,41,30.12,29.97,13,4,0,0.00